Swall Meadows, California
Current Conditions -  °F | °C
As of 12:56 AM on Friday 24 Oct 2014 (Local Time) from KBIH Reporting Station
Clear Clear  
Wind Chill: 39°   Ceiling: Unl
Heat Index: 43°   Visibility: 10mi
Dew Point: 25°   Wind: 6mph
Humidity: 49%   Direction: 340°NNW
Pressure: 30.09"   Gusts: NA
Location:  37.4772°N, 118.401°W
Report Text: KBIH 240756Z AUTO 34005KT 10SM CLR 06/M04 A3009 RMK AO2 SLP163 T00611039 402560033
Loading
Personal Weather Stations






























Interactive Weather Map
Tropical Storm Tracking
New forecast layout! Learn more

10-Day Weather Forecast

Advertisements
Track Severe Weather on mobile